createdAt,value
2023-01-10T00:01:34.798Z,101155.53
2023-01-10T00:04:02.441Z,101157.19
2023-01-10T00:06:29.970Z,101165.78
2023-01-10T00:08:58.457Z,101155.44
2023-01-10T00:11:43.920Z,101160.78
2023-01-10T00:14:12.229Z,101173.78
2023-01-10T00:16:41.854Z,101172.16
2023-01-10T00:19:10.816Z,101179.84
2023-01-10T00:21:40.016Z,101179.06
2023-01-10T00:24:17.593Z,101183.38
2023-01-10T00:26:48.974Z,101179.78
2023-01-10T00:29:17.054Z,101181.72
2023-01-10T00:31:44.597Z,101190.41
2023-01-10T00:34:12.109Z,101201.66
2023-01-10T00:36:39.782Z,101203.56
2023-01-10T00:39:12.489Z,101200.97
2023-01-10T00:41:58.356Z,101207.63
2023-01-10T00:44:26.357Z,101210.28
2023-01-10T00:46:54.986Z,101214.09
2023-01-10T00:49:22.567Z,101218.19
2023-01-10T00:51:50.174Z,101221.41
2023-01-10T00:54:17.912Z,101228.41
2023-01-10T00:56:45.485Z,101233.44
2023-01-10T00:59:12.998Z,101233.31
2023-01-10T01:01:40.722Z,101237.66
2023-01-10T01:04:08.501Z,101242.81
2023-01-10T01:06:36.183Z,101241.94
2023-01-10T01:09:03.857Z,101241.91
2023-01-10T01:11:31.392Z,101249.72
2023-01-10T01:13:58.891Z,101250.53
2023-01-10T01:16:26.433Z,101255.84
2023-01-10T01:18:53.937Z,101253.22
2023-01-10T01:21:21.616Z,101257.41
2023-01-10T01:23:49.145Z,101254.09
2023-01-10T01:26:16.661Z,101277.34
2023-01-10T01:28:44.203Z,101271.22
2023-01-10T01:31:11.898Z,101273.75
2023-01-10T01:33:39.531Z,101283.16
2023-01-10T01:36:15.800Z,101275.41
2023-01-10T01:38:43.603Z,101288.16
2023-01-10T01:41:25.032Z,101288.16
2023-01-10T01:44:08.221Z,101291.50
2023-01-10T01:46:39.449Z,101293.25
2023-01-10T01:49:14.579Z,101292.38
2023-01-10T01:51:45.767Z,101289.88
2023-01-10T01:54:14.682Z,101296.00
2023-01-10T01:56:49.814Z,101297.00
2023-01-10T01:59:24.062Z,101309.91
2023-01-10T02:01:55.660Z,101303.03
2023-01-10T02:04:28.428Z,101305.69
2023-01-10T02:06:57.921Z,101305.69
2023-01-10T02:09:40.344Z,101299.69
2023-01-10T02:12:08.905Z,101297.16
2023-01-10T02:14:39.006Z,101301.63
2023-01-10T02:17:06.947Z,101305.97
2023-01-10T02:20:03.367Z,101302.56
2023-01-10T02:22:58.707Z,101301.81
2023-01-10T02:25:40.323Z,101309.59
2023-01-10T02:28:26.334Z,101303.72
2023-01-10T02:31:12.498Z,101304.56
2023-01-10T02:33:56.342Z,101290.44
2023-01-10T02:36:39.615Z,101307.88
2023-01-10T02:39:24.670Z,101293.88
2023-01-10T02:42:20.539Z,101295.59
2023-01-10T02:45:06.135Z,101309.41
2023-01-10T02:47:41.676Z,101304.19
2023-01-10T02:50:24.807Z,101319.66
2023-01-10T02:52:52.877Z,101324.09
2023-01-10T02:55:26.343Z,101326.63
2023-01-10T02:58:18.679Z,101334.28
2023-01-10T03:00:48.987Z,101339.56
2023-01-10T03:03:27.304Z,101337.72
2023-01-10T03:06:16.704Z,101341.22
2023-01-10T03:09:04.910Z,101353.31
2023-01-10T03:11:41.378Z,101341.34
2023-01-10T03:14:29.462Z,101359.53
2023-01-10T03:17:02.864Z,101360.56
2023-01-10T03:19:42.347Z,101362.38
2023-01-10T03:22:12.207Z,101366.75
2023-01-10T03:24:46.991Z,101366.81
2023-01-10T03:27:35.013Z,101365.09
2023-01-10T03:30:11.246Z,101368.59
2023-01-10T03:32:38.763Z,101380.59
2023-01-10T03:35:07.178Z,101389.44
2023-01-10T03:37:57.127Z,101382.59
2023-01-10T03:40:42.522Z,101390.38
2023-01-10T03:43:35.232Z,101384.22
2023-01-10T03:46:02.603Z,101384.09
2023-01-10T03:48:35.168Z,101396.00
2023-01-10T03:51:06.466Z,101392.47
2023-01-10T03:53:35.779Z,101407.94
2023-01-10T03:56:03.368Z,101409.75
2023-01-10T03:58:31.139Z,101415.94
2023-01-10T04:00:58.814Z,101403.94
2023-01-10T04:03:26.397Z,101405.78
2023-01-10T04:05:53.959Z,101420.47
2023-01-10T04:08:21.449Z,101426.56
2023-01-10T04:10:52.372Z,101427.31
2023-01-10T04:13:19.930Z,101430.66
2023-01-10T04:15:47.502Z,101430.56
2023-01-10T04:18:15.846Z,101443.50
2023-01-10T04:20:43.386Z,101440.94
2023-01-10T04:23:10.892Z,101440.91
2023-01-10T04:25:38.407Z,101447.66
2023-01-10T04:28:06.173Z,101452.81
2023-01-10T04:30:33.693Z,101454.50
2023-01-10T04:33:01.235Z,101461.97
2023-01-10T04:35:28.797Z,101464.50
2023-01-10T04:37:56.317Z,101460.94
2023-01-10T04:40:23.924Z,101465.09
2023-01-10T04:42:51.496Z,101457.13
2023-01-10T04:45:20.393Z,101468.22
2023-01-10T04:47:52.201Z,101469.03
2023-01-10T04:50:19.850Z,101455.06
2023-01-10T04:52:47.392Z,101456.75
2023-01-10T04:55:15.024Z,101454.94
2023-01-10T04:57:42.510Z,101455.66
2023-01-10T05:00:10.955Z,101459.88
2023-01-10T05:02:42.629Z,101453.69
2023-01-10T05:05:11.785Z,101466.56
2023-01-10T05:07:39.299Z,101475.84
2023-01-10T05:10:09.034Z,101482.66
2023-01-10T05:12:36.583Z,101498.00
2023-01-10T05:15:04.282Z,101498.72
2023-01-10T05:17:31.845Z,101513.31
2023-01-10T05:19:59.487Z,101524.44
2023-01-10T05:22:27.068Z,101517.53
2023-01-10T05:24:54.781Z,101526.84
2023-01-10T05:27:22.667Z,101529.28
2023-01-10T05:29:50.221Z,101539.50
2023-01-10T05:32:17.900Z,101537.66
2023-01-10T05:34:45.439Z,101533.25
2023-01-10T05:37:12.957Z,101531.44
2023-01-10T05:39:41.486Z,101533.16
2023-01-10T05:42:08.958Z,101534.72
2023-01-10T05:44:36.556Z,101531.09
2023-01-10T05:47:04.106Z,101542.16
2023-01-10T05:49:34.029Z,101542.94
2023-01-10T05:52:01.663Z,101554.03
2023-01-10T05:54:29.757Z,101541.09
2023-01-10T05:56:57.560Z,101553.94
2023-01-10T05:59:28.638Z,101553.84
2023-01-10T06:01:56.621Z,101550.09
2023-01-10T06:04:24.158Z,101567.78
2023-01-10T06:06:51.753Z,101567.13
2023-01-10T06:09:19.421Z,101576.84
2023-01-10T06:11:46.933Z,101575.38
2023-01-10T06:14:19.080Z,101584.47
2023-01-10T06:16:47.821Z,101577.72
2023-01-10T06:19:15.842Z,101567.50
2023-01-10T06:21:43.455Z,101566.00
2023-01-10T06:24:11.297Z,101573.00
2023-01-10T06:26:38.827Z,101567.97
2023-01-10T06:29:06.401Z,101567.97
2023-01-10T06:31:33.928Z,101564.59
2023-01-10T06:34:01.568Z,101573.41
2023-01-10T06:36:29.126Z,101591.53
2023-01-10T06:38:56.648Z,101599.53
2023-01-10T06:41:24.206Z,101600.38
2023-01-10T06:43:51.893Z,101603.13
2023-01-10T06:46:20.602Z,101595.44
2023-01-10T06:48:49.037Z,101594.75
2023-01-10T06:51:20.033Z,101598.28
2023-01-10T06:53:47.946Z,101603.41
2023-01-10T06:56:15.469Z,101617.47
2023-01-10T06:58:42.968Z,101611.38
2023-01-10T07:01:18.893Z,101603.63
2023-01-10T07:03:46.876Z,101615.09
2023-01-10T07:06:14.868Z,101609.09
2023-01-10T07:08:44.990Z,101612.69
2023-01-10T07:11:14.296Z,101619.69
2023-01-10T07:13:42.312Z,101629.94
2023-01-10T07:16:13.338Z,101643.88
2023-01-10T07:18:42.503Z,101631.88
2023-01-10T07:21:11.722Z,101647.47
2023-01-10T07:23:40.002Z,101658.72
2023-01-10T07:26:17.446Z,101663.00
2023-01-10T07:28:51.864Z,101656.19
2023-01-10T07:31:22.773Z,101661.13
2023-01-10T07:33:52.227Z,101667.44
2023-01-10T07:36:20.260Z,101670.88
2023-01-10T07:38:47.892Z,101646.81
2023-01-10T07:41:15.683Z,101649.34
2023-01-10T07:43:43.212Z,101677.91
2023-01-10T07:46:12.404Z,101680.38
2023-01-10T07:48:41.782Z,101673.38
2023-01-10T07:51:09.915Z,101675.94
2023-01-10T07:53:37.428Z,101678.31
2023-01-10T07:56:05.457Z,101677.97
2023-01-10T07:58:33.322Z,101687.34
2023-01-10T08:01:02.911Z,101679.88
2023-01-10T08:03:33.126Z,101675.44
2023-01-10T08:06:10.321Z,101703.81
2023-01-10T08:08:38.334Z,101689.13
2023-01-10T08:11:06.349Z,101695.88
2023-01-10T08:13:34.312Z,101700.06
2023-01-10T08:16:06.464Z,101705.34
2023-01-10T08:18:34.426Z,101711.53
2023-01-10T08:21:01.998Z,101710.75
2023-01-10T08:23:30.318Z,101712.22
2023-01-10T08:26:00.303Z,101704.44
2023-01-10T08:28:28.275Z,101701.91
2023-01-10T08:30:56.397Z,101696.00
2023-01-10T08:33:25.392Z,101690.91
2023-01-10T08:35:53.108Z,101687.59
2023-01-10T08:38:20.705Z,101701.38
2023-01-10T08:40:48.215Z,101691.06
2023-01-10T08:43:16.120Z,101687.69
2023-01-10T08:45:43.634Z,101693.19
2023-01-10T08:48:11.483Z,101695.78
2023-01-10T08:50:39.124Z,101692.34
2023-01-10T08:53:07.207Z,101694.94
2023-01-10T08:55:35.719Z,101677.63
2023-01-10T08:58:03.658Z,101685.25
2023-01-10T09:00:32.009Z,101680.94
2023-01-10T09:02:59.532Z,101682.78
2023-01-10T09:05:28.340Z,101681.03
2023-01-10T09:08:01.440Z,101691.41
2023-01-10T09:10:30.209Z,101677.78
2023-01-10T09:13:01.837Z,101682.25
2023-01-10T09:15:34.117Z,101683.88
2023-01-10T09:18:04.811Z,101679.59
2023-01-10T09:20:32.888Z,101677.97
2023-01-10T09:23:00.933Z,101674.72
2023-01-10T09:25:28.467Z,101674.72
2023-01-10T09:28:01.421Z,101671.31
2023-01-10T09:30:30.308Z,101673.06
2023-01-10T09:32:58.930Z,101674.13
2023-01-10T09:35:28.298Z,101672.16
2023-01-10T09:38:01.072Z,101673.31
2023-01-10T09:40:43.857Z,101686.16
2023-01-10T09:43:23.189Z,101673.00
2023-01-10T09:46:09.200Z,101680.13
2023-01-10T09:48:43.851Z,101658.66
2023-01-10T09:51:42.472Z,101667.19
2023-01-10T09:54:26.882Z,101671.75
2023-01-10T09:56:56.202Z,101681.88
2023-01-10T09:59:37.789Z,101678.22
2023-01-10T10:02:31.967Z,101678.41
2023-01-10T10:05:22.940Z,101661.06
2023-01-10T10:07:58.659Z,101664.06
2023-01-10T10:10:30.779Z,101663.31
2023-01-10T10:13:01.471Z,101660.03
2023-01-10T10:15:31.937Z,101663.63
2023-01-10T10:18:08.315Z,101664.31
2023-01-10T10:20:44.650Z,101672.19
2023-01-10T10:23:26.487Z,101670.69
2023-01-10T10:25:56.691Z,101670.28
2023-01-10T10:29:01.550Z,101665.97
2023-01-10T10:31:29.082Z,101661.47
2023-01-10T10:34:11.776Z,101649.31
2023-01-10T10:36:43.055Z,101648.66
2023-01-10T10:39:17.155Z,101634.75
2023-01-10T10:41:47.777Z,101631.50
2023-01-10T10:44:37.085Z,101634.94
2023-01-10T10:47:15.171Z,101622.59
2023-01-10T10:49:51.730Z,101623.66
2023-01-10T10:52:30.702Z,101616.63
2023-01-10T10:54:59.686Z,101622.94
2023-01-10T10:57:31.320Z,101623.84
2023-01-10T11:00:01.252Z,101619.88
2023-01-10T11:02:31.996Z,101612.69
2023-01-10T11:05:09.824Z,101602.47
2023-01-10T11:07:38.545Z,101607.72
2023-01-10T11:10:38.459Z,101603.16
2023-01-10T11:13:24.914Z,101604.03
2023-01-10T11:15:54.619Z,101587.53
2023-01-10T11:18:26.764Z,101590.41
2023-01-10T11:21:09.408Z,101584.63
2023-01-10T11:23:55.039Z,101576.78
2023-01-10T11:26:34.346Z,101573.22
2023-01-10T11:29:09.642Z,101576.78
2023-01-10T11:31:37.971Z,101563.06
2023-01-10T11:34:37.568Z,101568.47
2023-01-10T11:37:19.497Z,101551.28
2023-01-10T11:39:47.030Z,101552.16
2023-01-10T11:42:30.406Z,101562.50
2023-01-10T11:45:20.004Z,101561.91
2023-01-10T11:49:03.352Z,101556.69
2023-01-10T11:51:34.431Z,101549.16
2023-01-10T11:54:03.367Z,101550.91
2023-01-10T11:56:34.068Z,101539.91
2023-01-10T11:59:12.445Z,101533.84
2023-01-10T12:01:48.120Z,101530.34
2023-01-10T12:04:17.992Z,101523.75
2023-01-10T12:07:02.947Z,101526.25
2023-01-10T12:09:46.135Z,101521.94
2023-01-10T12:12:28.329Z,101511.13
2023-01-10T12:14:58.147Z,101501.56
2023-01-10T12:17:31.479Z,101504.16
2023-01-10T12:20:01.598Z,101501.78
2023-01-10T12:22:38.220Z,101478.34
2023-01-10T12:25:32.026Z,101481.28
2023-01-10T12:28:01.545Z,101469.91
2023-01-10T12:30:43.624Z,101471.56
2023-01-10T12:33:22.563Z,101468.06
2023-01-10T12:35:59.626Z,101478.56
2023-01-10T12:39:04.682Z,101472.50
2023-01-10T12:42:08.282Z,101469.00
2023-01-10T12:44:41.385Z,101464.75
2023-01-10T12:47:46.640Z,101454.44
2023-01-10T12:50:18.455Z,101446.00
2023-01-10T12:53:09.034Z,101446.84
2023-01-10T12:55:42.269Z,101446.88
2023-01-10T12:58:21.988Z,101436.38
2023-01-10T13:00:54.755Z,101430.56
2023-01-10T13:03:26.152Z,101420.25
2023-01-10T13:05:55.011Z,101412.59
2023-01-10T13:08:26.134Z,101408.31
2023-01-10T13:10:56.896Z,101409.22
2023-01-10T13:13:52.288Z,101398.94
2023-01-10T13:16:42.396Z,101391.25
2023-01-10T13:19:14.569Z,101397.16
2023-01-10T13:21:43.838Z,101388.56
2023-01-10T13:24:18.092Z,101379.09
2023-01-10T13:27:01.924Z,101380.03
2023-01-10T13:29:43.008Z,101368.81
2023-01-10T13:32:23.331Z,101368.94
2023-01-10T13:34:51.589Z,101376.69
2023-01-10T13:37:35.251Z,101370.78
2023-01-10T13:40:04.475Z,101369.94
2023-01-10T13:42:52.479Z,101370.03
2023-01-10T13:45:25.466Z,101367.41
2023-01-10T13:47:54.672Z,101363.97
2023-01-10T13:50:25.489Z,101365.69
2023-01-10T13:53:18.694Z,101352.78
2023-01-10T13:55:49.846Z,101348.53
2023-01-10T13:58:17.365Z,101350.91
2023-01-10T14:01:06.453Z,101341.34
2023-01-10T14:03:55.050Z,101328.22
2023-01-10T14:06:40.985Z,101327.03
2023-01-10T14:09:31.469Z,101321.84
2023-01-10T14:12:00.847Z,101307.03
2023-01-10T14:14:37.174Z,101321.72
2023-01-10T14:17:19.763Z,101311.16
2023-01-10T14:19:48.991Z,101307.59
2023-01-10T14:22:27.468Z,101297.19
2023-01-10T14:24:55.657Z,101276.50
2023-01-10T14:27:24.142Z,101265.22
2023-01-10T14:30:00.720Z,101285.94
2023-01-10T14:32:43.754Z,101266.09
2023-01-10T14:35:18.665Z,101264.38
2023-01-10T14:37:53.147Z,101253.91
2023-01-10T14:40:29.696Z,101251.41
2023-01-10T14:43:00.420Z,101236.56
2023-01-10T14:45:36.242Z,101222.81
2023-01-10T14:48:27.830Z,101219.31
2023-01-10T14:51:09.242Z,101209.06
2023-01-10T14:53:37.179Z,101205.69
2023-01-10T14:56:04.696Z,101204.81
2023-01-10T14:58:32.492Z,101196.13
2023-01-10T15:01:00.078Z,101202.16
2023-01-10T15:03:27.691Z,101193.38
2023-01-10T15:05:58.664Z,101187.28
2023-01-10T15:08:32.236Z,101183.16
2023-01-10T15:11:09.175Z,101177.84
2023-01-10T15:13:42.784Z,101181.31
2023-01-10T15:16:26.680Z,101177.91
2023-01-10T15:18:56.490Z,101160.63
2023-01-10T15:21:25.636Z,101156.22
2023-01-10T15:23:53.452Z,101157.97
2023-01-10T15:26:28.475Z,101144.16
2023-01-10T15:29:17.198Z,101140.72
2023-01-10T15:31:44.936Z,101122.66
2023-01-10T15:34:19.916Z,101115.75
2023-01-10T15:36:52.376Z,101108.78
2023-01-10T15:39:23.412Z,101101.09
2023-01-10T15:41:57.487Z,101117.44
2023-01-10T15:44:45.182Z,101113.09
2023-01-10T15:47:44.801Z,101120.91
2023-01-10T15:50:26.982Z,101096.66
2023-01-10T15:53:01.595Z,101119.09
2023-01-10T15:55:50.425Z,101102.69
2023-01-10T15:58:28.914Z,101105.25
2023-01-10T16:00:58.717Z,101094.06
2023-01-10T16:03:35.768Z,101093.25
2023-01-10T16:06:08.931Z,101086.41
2023-01-10T16:08:38.915Z,101077.72
2023-01-10T16:11:10.020Z,101071.63
2023-01-10T16:13:37.495Z,101055.34
2023-01-10T16:16:16.494Z,101049.31
2023-01-10T16:18:44.113Z,101041.69
2023-01-10T16:21:13.634Z,101026.94
2023-01-10T16:23:45.978Z,101020.00
2023-01-10T16:26:14.741Z,101022.56
2023-01-10T16:28:42.315Z,101043.31
2023-01-10T16:31:12.886Z,101039.88
2023-01-10T16:33:41.306Z,101021.78
2023-01-10T16:36:20.803Z,101005.38
2023-01-10T16:38:48.433Z,101021.00
2023-01-10T16:41:34.081Z,101013.97
2023-01-10T16:44:01.874Z,101032.06
2023-01-10T16:46:30.249Z,101003.59
2023-01-10T16:48:57.820Z,101005.25
2023-01-10T16:51:28.694Z,101004.50
2023-01-10T16:53:56.281Z,100988.09
2023-01-10T16:56:26.540Z,100987.38
2023-01-10T16:58:55.085Z,100962.41
2023-01-10T17:01:29.963Z,100964.03
2023-01-10T17:03:58.458Z,100974.53
2023-01-10T17:06:26.220Z,100953.59
2023-01-10T17:08:54.135Z,100979.69
2023-01-10T17:11:33.820Z,100980.50
2023-01-10T17:14:02.391Z,100967.53
2023-01-10T17:16:30.020Z,100962.34
2023-01-10T17:18:57.632Z,100977.84
2023-01-10T17:21:25.400Z,100954.53
2023-01-10T17:23:52.947Z,100953.78
2023-01-10T17:26:21.337Z,100947.91
2023-01-10T17:28:49.767Z,100944.53
2023-01-10T17:31:19.723Z,100957.53
2023-01-10T17:33:49.116Z,100946.28
2023-01-10T17:36:19.309Z,100925.75
2023-01-10T17:38:47.187Z,100935.22
2023-01-10T17:41:15.004Z,100928.44
2023-01-10T17:43:42.455Z,100918.88
2023-01-10T17:46:10.977Z,100925.88
2023-01-10T17:48:38.670Z,100933.78
2023-01-10T17:51:07.880Z,100929.53
2023-01-10T17:53:35.512Z,100922.81
2023-01-10T17:56:03.087Z,100914.03
2023-01-10T17:58:31.401Z,100914.19
2023-01-10T18:00:59.118Z,100908.34
2023-01-10T18:03:26.834Z,100887.72
2023-01-10T18:05:59.351Z,100892.03
2023-01-10T18:08:27.597Z,100880.72
2023-01-10T18:11:02.105Z,100887.75
2023-01-10T18:13:31.463Z,100874.00
2023-01-10T18:16:00.220Z,100872.31
2023-01-10T18:18:28.400Z,100877.59
2023-01-10T18:20:58.202Z,100866.44
2023-01-10T18:23:26.965Z,100871.59
2023-01-10T18:26:05.487Z,100885.47
2023-01-10T18:28:42.124Z,100863.09
2023-01-10T18:31:16.311Z,100870.91
2023-01-10T18:33:44.422Z,100853.63
2023-01-10T18:36:21.630Z,100845.88
2023-01-10T18:38:50.716Z,100846.81
2023-01-10T18:41:19.756Z,100862.38
2023-01-10T18:43:47.761Z,100858.13
2023-01-10T18:46:18.836Z,100875.41
2023-01-10T18:48:47.102Z,100834.00
2023-01-10T18:51:15.385Z,100859.00
2023-01-10T18:53:43.907Z,100866.81
2023-01-10T18:56:12.332Z,100855.66
2023-01-10T18:58:41.767Z,100849.66
2023-01-10T19:01:15.196Z,100857.41
2023-01-10T19:03:43.711Z,100849.69
2023-01-10T19:06:14.545Z,100856.66
2023-01-10T19:08:42.554Z,100835.13
2023-01-10T19:11:14.833Z,100849.03
2023-01-10T19:13:43.774Z,100854.19
2023-01-10T19:16:23.886Z,100844.63
2023-01-10T19:18:56.981Z,100844.72
2023-01-10T19:21:26.138Z,100855.06
2023-01-10T19:23:56.544Z,100850.72
2023-01-10T19:26:25.315Z,100844.78
2023-01-10T19:28:53.703Z,100841.34
2023-01-10T19:31:27.624Z,100825.00
2023-01-10T19:33:58.649Z,100830.16
2023-01-10T19:36:26.475Z,100832.78
2023-01-10T19:38:59.375Z,100833.63
2023-01-10T19:41:29.380Z,100821.59
2023-01-10T19:44:01.275Z,100799.13
2023-01-10T19:46:31.627Z,100806.06
2023-01-10T19:49:03.110Z,100807.81
2023-01-10T19:51:30.649Z,100808.69
2023-01-10T19:53:58.118Z,100800.94
2023-01-10T19:56:25.747Z,100794.03
2023-01-10T19:58:55.155Z,100788.84
2023-01-10T20:01:26.071Z,100812.13
2023-01-10T20:03:55.384Z,100790.59
2023-01-10T20:06:26.580Z,100796.66
2023-01-10T20:08:55.140Z,100799.22
2023-01-10T20:11:24.480Z,100781.97
2023-01-10T20:13:52.417Z,100790.63
2023-01-10T20:16:22.927Z,100781.19
2023-01-10T20:18:52.612Z,100782.88
2023-01-10T20:21:21.515Z,100771.69
2023-01-10T20:23:49.048Z,100768.25
2023-01-10T20:26:20.559Z,100763.06
2023-01-10T20:28:48.913Z,100761.38
2023-01-10T20:31:20.636Z,100761.38
2023-01-10T20:33:48.715Z,100751.88
2023-01-10T20:36:20.377Z,100758.81
2023-01-10T20:38:48.087Z,100745.84
2023-01-10T20:41:18.182Z,100750.16
2023-01-10T20:43:46.561Z,100756.22
2023-01-10T20:46:28.896Z,100746.72
2023-01-10T20:48:57.478Z,100735.50
2023-01-10T20:51:31.597Z,100728.59
2023-01-10T20:53:59.996Z,100726.88
2023-01-10T20:56:30.584Z,100732.06
2023-01-10T20:58:58.704Z,100732.06
2023-01-10T21:01:34.695Z,100726.00
2023-01-10T21:04:07.365Z,100722.53
2023-01-10T21:06:36.979Z,100717.38
2023-01-10T21:09:06.423Z,100706.16
2023-01-10T21:11:47.547Z,100704.44
2023-01-10T21:14:22.287Z,100705.28
2023-01-10T21:16:50.452Z,100710.47
2023-01-10T21:19:18.008Z,100709.59
2023-01-10T21:21:45.738Z,100704.41
2023-01-10T21:24:13.253Z,100699.22
2023-01-10T21:26:40.963Z,100690.59
2023-01-10T21:29:08.491Z,100702.69
2023-01-10T21:31:36.117Z,100691.47
2023-01-10T21:34:03.704Z,100685.41
2023-01-10T21:36:31.305Z,100657.78
2023-01-10T21:38:58.830Z,100675.06
2023-01-10T21:41:42.883Z,100673.31
2023-01-10T21:44:10.702Z,100673.31
2023-01-10T21:46:38.425Z,100680.22
2023-01-10T21:49:06.457Z,100669.84
2023-01-10T21:51:34.025Z,100662.97
2023-01-10T21:54:01.650Z,100667.28
2023-01-10T21:56:29.319Z,100676.78
2023-01-10T21:58:56.902Z,100658.63
2023-01-10T22:01:24.434Z,100650.84
2023-01-10T22:03:52.019Z,100642.19
2023-01-10T22:06:19.570Z,100634.41
2023-01-10T22:08:47.210Z,100633.53
2023-01-10T22:11:14.770Z,100649.09
2023-01-10T22:13:42.238Z,100645.63
2023-01-10T22:16:09.804Z,100615.38
2023-01-10T22:18:37.392Z,100630.09
2023-01-10T22:21:04.975Z,100619.69
2023-01-10T22:23:32.467Z,100629.22
2023-01-10T22:26:02.300Z,100616.22
2023-01-10T22:28:29.947Z,100617.06
2023-01-10T22:30:57.967Z,100614.47
2023-01-10T22:33:29.881Z,100606.69
2023-01-10T22:35:58.329Z,100612.72
2023-01-10T22:38:25.915Z,100604.94
2023-01-10T22:40:53.480Z,100619.63
2023-01-10T22:43:20.956Z,100612.66
2023-01-10T22:45:48.481Z,100592.72
2023-01-10T22:48:16.033Z,100600.56
2023-01-10T22:50:49.880Z,100605.75
2023-01-10T22:53:17.373Z,100592.72
2023-01-10T22:55:44.845Z,100581.56
2023-01-10T22:58:12.346Z,100597.06
2023-01-10T23:00:39.864Z,100584.09
2023-01-10T23:03:07.389Z,100576.31
2023-01-10T23:05:34.859Z,100579.75
2023-01-10T23:08:02.499Z,100581.47
2023-01-10T23:10:31.080Z,100580.56
2023-01-10T23:12:59.622Z,100585.72
2023-01-10T23:15:27.193Z,100569.25
2023-01-10T23:17:54.831Z,100572.69
2023-01-10T23:20:22.328Z,100568.38
2023-01-10T23:22:49.865Z,100576.09
2023-01-10T23:25:17.526Z,100576.09
2023-01-10T23:27:45.117Z,100568.28
2023-01-10T23:30:13.124Z,100563.94
2023-01-10T23:32:40.614Z,100575.16
2023-01-10T23:35:08.463Z,100567.41
2023-01-10T23:37:35.990Z,100559.59
2023-01-10T23:40:03.531Z,100569.03
2023-01-10T23:42:31.013Z,100562.94
2023-01-10T23:44:58.499Z,100557.78
2023-01-10T23:47:25.992Z,100539.63
2023-01-10T23:49:53.483Z,100543.88
2023-01-10T23:52:20.994Z,100555.16
2023-01-10T23:54:48.543Z,100547.41
2023-01-10T23:57:16.007Z,100538.72
2023-01-10T23:59:43.481Z,100547.31
